createdAt,value
2022-10-09T00:01:48.732Z,98549.91
2022-10-09T00:04:15.853Z,98545.31
2022-10-09T00:06:42.967Z,98552.88
2022-10-09T00:09:11.407Z,98550.44
2022-10-09T00:11:38.659Z,98545.31
2022-10-09T00:14:05.884Z,98545.56
2022-10-09T00:16:33.239Z,98546.91
2022-10-09T00:19:00.532Z,98544.72
2022-10-09T00:21:29.528Z,98540.13
2022-10-09T00:23:58.869Z,98546.63
2022-10-09T00:26:28.459Z,98550.16
2022-10-09T00:28:56.198Z,98546.91
2022-10-09T00:31:23.893Z,98546.09
2022-10-09T00:33:51.260Z,98542.59
2022-10-09T00:36:20.154Z,98545.56
2022-10-09T00:38:47.720Z,98528.81
2022-10-09T00:41:17.809Z,98541.53
2022-10-09T00:43:48.520Z,98537.72
2022-10-09T00:46:28.419Z,98539.91
2022-10-09T00:49:04.182Z,98540.44
2022-10-09T00:51:33.594Z,98540.97
2022-10-09T00:54:03.775Z,98540.69
2022-10-09T00:56:31.049Z,98542.84
2022-10-09T00:58:59.852Z,98532.84
2022-10-09T01:01:27.216Z,98537.69
2022-10-09T01:03:54.453Z,98538.53
2022-10-09T01:06:32.228Z,98535.28
2022-10-09T01:09:06.105Z,98532.59
2022-10-09T01:11:41.301Z,98532.84
2022-10-09T01:14:17.691Z,98530.97
2022-10-09T01:16:51.165Z,98522.06
2022-10-09T01:19:35.845Z,98526.69
2022-10-09T01:22:13.471Z,98522.91
2022-10-09T01:24:47.762Z,98523.66
2022-10-09T01:27:17.894Z,98523.66
2022-10-09T01:29:48.247Z,98520.19
2022-10-09T01:32:19.809Z,98519.38
2022-10-09T01:34:47.826Z,98513.72
2022-10-09T01:37:17.423Z,98509.13
2022-10-09T01:39:46.209Z,98510.19
2022-10-09T01:42:15.188Z,98517.47
2022-10-09T01:44:43.678Z,98507.22
2022-10-09T01:47:15.080Z,98507.47
2022-10-09T01:49:50.022Z,98509.63
2022-10-09T01:52:40.413Z,98506.66
2022-10-09T01:55:25.641Z,98501.53
2022-10-09T01:57:57.014Z,98506.38
2022-10-09T02:00:26.212Z,98493.16
2022-10-09T02:02:54.953Z,98503.66
2022-10-09T02:05:24.873Z,98500.97
2022-10-09T02:07:53.168Z,98495.84
2022-10-09T02:10:21.924Z,98489.38
2022-10-09T02:12:53.810Z,98494.53
2022-10-09T02:15:24.208Z,98485.59
2022-10-09T02:17:57.288Z,98490.75
2022-10-09T02:20:30.107Z,98486.69
2022-10-09T02:23:00.357Z,98478.34
2022-10-09T02:25:28.400Z,98477.50
2022-10-09T02:27:56.073Z,98474.56
2022-10-09T02:30:26.894Z,98471.59
2022-10-09T02:32:55.460Z,98474.56
2022-10-09T02:35:22.562Z,98475.41
2022-10-09T02:37:49.677Z,98475.34
2022-10-09T02:40:16.813Z,98473.22
2022-10-09T02:42:43.950Z,98471.31
2022-10-09T02:45:11.225Z,98469.16
2022-10-09T02:47:38.318Z,98469.41
2022-10-09T02:50:08.360Z,98472.13
2022-10-09T02:52:35.483Z,98476.97
2022-10-09T02:55:02.707Z,98469.34
2022-10-09T02:57:29.816Z,98465.91
2022-10-09T02:59:56.921Z,98468.78
2022-10-09T03:02:24.227Z,98465.31
2022-10-09T03:04:51.374Z,98464.81
2022-10-09T03:07:19.869Z,98464.28
2022-10-09T03:09:46.973Z,98463.22
2022-10-09T03:12:14.106Z,98459.97
2022-10-09T03:14:41.324Z,98463.75
2022-10-09T03:17:08.417Z,98464.56
2022-10-09T03:19:35.500Z,98468.06
2022-10-09T03:22:02.632Z,98468.31
2022-10-09T03:24:31.088Z,98461.88
2022-10-09T03:26:58.175Z,98461.31
2022-10-09T03:29:25.305Z,98462.94
2022-10-09T03:31:53.535Z,98460.53
2022-10-09T03:34:20.904Z,98460.22
2022-10-09T03:36:48.103Z,98459.13
2022-10-09T03:39:15.229Z,98462.38
2022-10-09T03:41:43.670Z,98461.84
2022-10-09T03:44:10.794Z,98464.75
2022-10-09T03:46:38.119Z,98457.47
2022-10-09T03:49:05.257Z,98456.66
2022-10-09T03:51:32.375Z,98459.34
2022-10-09T03:53:59.498Z,98453.75
2022-10-09T03:56:26.576Z,98457.00
2022-10-09T03:58:55.129Z,98456.94
2022-10-09T04:01:22.340Z,98458.56
2022-10-09T04:03:49.517Z,98460.22
2022-10-09T04:06:16.833Z,98458.56
2022-10-09T04:08:43.933Z,98453.16
2022-10-09T04:11:11.018Z,98458.56
2022-10-09T04:13:38.276Z,98465.03
2022-10-09T04:16:06.935Z,98468.31
2022-10-09T04:18:34.046Z,98475.81
2022-10-09T04:21:01.169Z,98456.94
2022-10-09T04:23:28.322Z,98464.75
2022-10-09T04:25:56.693Z,98466.34
2022-10-09T04:28:24.128Z,98464.50
2022-10-09T04:30:51.587Z,98471.19
2022-10-09T04:33:20.629Z,98473.09
2022-10-09T04:35:51.496Z,98469.34
2022-10-09T04:38:19.510Z,98466.91
2022-10-09T04:40:55.850Z,98464.44
2022-10-09T04:43:23.108Z,98463.94
2022-10-09T04:45:50.312Z,98467.41
2022-10-09T04:48:17.446Z,98457.72
2022-10-09T04:50:46.248Z,98468.75
2022-10-09T04:53:13.671Z,98469.88
2022-10-09T04:55:41.779Z,98469.59
2022-10-09T04:58:09.281Z,98467.97
2022-10-09T05:00:40.391Z,98469.59
2022-10-09T05:03:07.695Z,98465.00
2022-10-09T05:05:34.812Z,98476.84
2022-10-09T05:08:03.626Z,98474.72
2022-10-09T05:10:31.532Z,98470.13
2022-10-09T05:12:58.807Z,98469.34
2022-10-09T05:15:26.268Z,98475.50
2022-10-09T05:17:53.521Z,98475.78
2022-10-09T05:20:20.726Z,98476.84
2022-10-09T05:22:48.216Z,98473.59
2022-10-09T05:25:17.068Z,98480.09
2022-10-09T05:27:44.173Z,98478.44
2022-10-09T05:30:11.747Z,98484.94
2022-10-09T05:32:38.871Z,98482.72
2022-10-09T05:35:06.808Z,98480.88
2022-10-09T05:37:33.919Z,98477.34
2022-10-09T05:40:01.033Z,98480.03
2022-10-09T05:42:29.472Z,98481.13
2022-10-09T05:44:56.555Z,98484.69
2022-10-09T05:47:23.707Z,98481.69
2022-10-09T05:49:50.792Z,98493.84
2022-10-09T05:52:17.866Z,98488.72
2022-10-09T05:54:45.119Z,98487.91
2022-10-09T05:57:12.224Z,98492.47
2022-10-09T05:59:41.687Z,98488.16
2022-10-09T06:02:09.217Z,98493.81
2022-10-09T06:04:36.332Z,98493.56
2022-10-09T06:07:03.446Z,98495.47
2022-10-09T06:09:30.655Z,98495.72
2022-10-09T06:11:57.795Z,98496.38
2022-10-09T06:14:24.914Z,98501.78
2022-10-09T06:16:53.521Z,98502.28
2022-10-09T06:19:21.083Z,98496.63
2022-10-09T06:21:48.444Z,98499.34
2022-10-09T06:24:22.263Z,98504.97
2022-10-09T06:26:52.832Z,98513.06
2022-10-09T06:29:20.299Z,98508.78
2022-10-09T06:31:47.385Z,98507.69
2022-10-09T06:34:15.872Z,98507.44
2022-10-09T06:36:43.035Z,98520.66
2022-10-09T06:39:10.846Z,98512.03
2022-10-09T06:41:38.004Z,98513.16
2022-10-09T06:44:07.731Z,98508.56
2022-10-09T06:46:37.253Z,98516.66
2022-10-09T06:49:06.545Z,98511.25
2022-10-09T06:51:35.763Z,98523.38
2022-10-09T06:54:04.997Z,98515.84
2022-10-09T06:56:32.470Z,98521.25
2022-10-09T06:59:00.038Z,98517.97
2022-10-09T07:01:28.874Z,98519.88
2022-10-09T07:03:58.359Z,98525.28
2022-10-09T07:06:27.547Z,98525.00
2022-10-09T07:08:59.575Z,98528.81
2022-10-09T07:11:28.592Z,98528.53
2022-10-09T07:13:58.610Z,98529.09
2022-10-09T07:16:28.063Z,98537.97
2022-10-09T07:18:55.601Z,98535.53
2022-10-09T07:21:22.900Z,98533.91
2022-10-09T07:23:50.320Z,98524.97
2022-10-09T07:26:21.280Z,98530.16
2022-10-09T07:28:49.354Z,98525.75
2022-10-09T07:31:17.426Z,98523.28
2022-10-09T07:33:47.244Z,98531.78
2022-10-09T07:36:14.452Z,98527.34
2022-10-09T07:38:41.597Z,98530.59
2022-10-09T07:41:11.459Z,98528.28
2022-10-09T07:43:41.466Z,98526.50
2022-10-09T07:46:12.251Z,98521.88
2022-10-09T07:48:40.063Z,98517.88
2022-10-09T07:51:09.024Z,98517.69
2022-10-09T07:53:36.339Z,98519.34
2022-10-09T07:56:03.540Z,98513.44
2022-10-09T07:58:30.707Z,98520.22
2022-10-09T08:01:05.151Z,98511.84
2022-10-09T08:03:32.813Z,98517.00
2022-10-09T08:05:59.991Z,98520.03
2022-10-09T08:08:27.173Z,98524.81
2022-10-09T08:10:54.370Z,98524.34
2022-10-09T08:13:21.676Z,98533.25
2022-10-09T08:15:48.909Z,98531.00
2022-10-09T08:18:17.491Z,98534.00
2022-10-09T08:20:45.002Z,98531.34
2022-10-09T08:23:12.749Z,98521.13
2022-10-09T08:25:39.864Z,98520.09
2022-10-09T08:28:06.998Z,98522.56
2022-10-09T08:30:34.232Z,98517.97
2022-10-09T08:33:01.469Z,98518.31
2022-10-09T08:35:33.727Z,98518.81
2022-10-09T08:38:01.609Z,98519.66
2022-10-09T08:40:37.764Z,98514.56
2022-10-09T08:43:07.126Z,98526.00
2022-10-09T08:45:35.751Z,98515.53
2022-10-09T08:48:06.371Z,98518.28
2022-10-09T08:50:38.927Z,98514.72
2022-10-09T08:53:13.730Z,98514.41
2022-10-09T08:55:45.423Z,98517.66
2022-10-09T08:58:17.169Z,98517.91
2022-10-09T09:00:46.400Z,98523.59
2022-10-09T09:03:44.816Z,98524.03
2022-10-09T09:06:21.900Z,98516.00
2022-10-09T09:08:55.465Z,98510.31
2022-10-09T09:11:34.093Z,98507.59
2022-10-09T09:14:15.595Z,98506.81
2022-10-09T09:16:50.379Z,98506.56
2022-10-09T09:19:40.906Z,98509.00
2022-10-09T09:22:13.274Z,98508.47
2022-10-09T09:24:45.020Z,98501.47
2022-10-09T09:27:14.785Z,98502.28
2022-10-09T09:29:44.904Z,98495.56
2022-10-09T09:32:18.199Z,98491.25
2022-10-09T09:34:45.630Z,98488.63
2022-10-09T09:37:14.367Z,98476.78
2022-10-09T09:42:29.766Z,98489.47
2022-10-09T09:45:00.341Z,98477.34
2022-10-09T09:47:33.643Z,98480.59
2022-10-09T09:50:03.491Z,98473.59
2022-10-09T09:52:36.932Z,98475.19
2022-10-09T09:55:04.970Z,98476.28
2022-10-09T09:57:35.750Z,98468.44
2022-10-09T10:00:23.869Z,98462.00
2022-10-09T10:03:02.544Z,98462.00
2022-10-09T10:05:36.093Z,98457.16
2022-10-09T10:08:15.715Z,98447.97
2022-10-09T10:10:47.304Z,98440.69
2022-10-09T10:13:16.217Z,98445.31
2022-10-09T10:15:49.563Z,98445.34
2022-10-09T10:18:18.595Z,98440.25
2022-10-09T10:20:48.183Z,98440.56
2022-10-09T10:23:34.562Z,98436.81
2022-10-09T10:26:06.753Z,98436.50
2022-10-09T10:28:42.624Z,98439.75
2022-10-09T10:31:18.483Z,98438.13
2022-10-09T10:33:51.960Z,98438.41
2022-10-09T10:36:19.344Z,98429.78
2022-10-09T10:38:55.242Z,98423.28
2022-10-09T10:41:27.399Z,98418.91
2022-10-09T10:43:58.811Z,98416.50
2022-10-09T10:46:29.319Z,98419.19
2022-10-09T10:48:58.693Z,98423.81
2022-10-09T10:51:50.228Z,98411.97
2022-10-09T10:54:32.139Z,98423.56
2022-10-09T10:57:08.818Z,98417.63
2022-10-09T10:59:40.029Z,98411.97
2022-10-09T11:02:33.921Z,98404.44
2022-10-09T11:05:15.402Z,98399.56
2022-10-09T11:07:50.226Z,98401.19
2022-10-09T11:10:27.455Z,98404.69
2022-10-09T11:13:01.097Z,98388.53
2022-10-09T11:15:36.521Z,98393.41
2022-10-09T11:18:23.222Z,98390.72
2022-10-09T11:21:06.475Z,98384.78
2022-10-09T11:23:47.315Z,98388.53
2022-10-09T11:26:25.692Z,98378.56
2022-10-09T11:29:01.352Z,98366.44
2022-10-09T11:31:32.499Z,98369.47
2022-10-09T11:34:05.068Z,98372.75
2022-10-09T11:36:37.280Z,98362.50
2022-10-09T11:39:06.396Z,98359.25
2022-10-09T11:41:36.084Z,98360.88
2022-10-09T11:44:35.915Z,98354.38
2022-10-09T11:47:10.038Z,98350.88
2022-10-09T11:49:39.702Z,98348.16
2022-10-09T11:52:18.842Z,98347.63
2022-10-09T11:54:46.010Z,98337.94
2022-10-09T11:57:15.489Z,98337.13
2022-10-09T11:59:42.819Z,98322.00
2022-10-09T12:02:24.224Z,98327.94
2022-10-09T12:04:55.642Z,98320.66
2022-10-09T12:07:30.224Z,98322.81
2022-10-09T12:10:01.485Z,98319.56
2022-10-09T12:12:30.810Z,98318.22
2022-10-09T12:14:58.019Z,98317.69
2022-10-09T12:17:33.962Z,98310.09
2022-10-09T12:20:07.442Z,98318.22
2022-10-09T12:22:37.201Z,98304.72
2022-10-09T12:25:08.312Z,98298.78
2022-10-09T12:27:40.928Z,98299.06
2022-10-09T12:30:18.681Z,98296.63
2022-10-09T12:32:50.935Z,98288.81
2022-10-09T12:35:22.693Z,98276.94
2022-10-09T12:37:49.877Z,98281.78
2022-10-09T12:40:21.159Z,98284.47
2022-10-09T12:42:51.381Z,98282.06
2022-10-09T12:45:21.232Z,98277.72
2022-10-09T12:47:48.893Z,98273.97
2022-10-09T12:50:24.386Z,98262.63
2022-10-09T12:52:53.123Z,98261.81
2022-10-09T12:55:25.737Z,98274.25
2022-10-09T12:57:56.294Z,98261.28
2022-10-09T13:00:23.499Z,98267.75
2022-10-09T13:02:51.163Z,98258.84
2022-10-09T13:05:18.569Z,98264.00
2022-10-09T13:07:52.410Z,98255.88
2022-10-09T13:10:22.333Z,98246.97
2022-10-09T13:12:51.769Z,98245.34
2022-10-09T13:15:33.426Z,98245.09
2022-10-09T13:18:01.394Z,98241.06
2022-10-09T13:20:30.723Z,98233.75
2022-10-09T13:23:00.054Z,98227.53
2022-10-09T13:25:32.273Z,98225.41
2022-10-09T13:27:59.439Z,98225.94
2022-10-09T13:30:26.650Z,98222.69
2022-10-09T13:32:55.194Z,98219.69
2022-10-09T13:35:22.358Z,98218.34
2022-10-09T13:37:49.820Z,98207.59
2022-10-09T13:40:19.150Z,98207.03
2022-10-09T13:42:52.778Z,98211.63
2022-10-09T13:45:20.391Z,98213.50
2022-10-09T13:47:47.845Z,98209.44
2022-10-09T13:50:17.213Z,98213.78
2022-10-09T13:52:44.362Z,98207.03
2022-10-09T13:55:11.791Z,98202.69
2022-10-09T13:57:38.937Z,98196.50
2022-10-09T14:00:07.458Z,98195.69
2022-10-09T14:02:34.565Z,98196.78
2022-10-09T14:05:01.701Z,98186.50
2022-10-09T14:07:30.374Z,98193.00
2022-10-09T14:09:57.529Z,98191.91
2022-10-09T14:12:25.118Z,98187.31
2022-10-09T14:14:53.140Z,98195.41
2022-10-09T14:17:20.383Z,98185.44
2022-10-09T14:19:47.505Z,98184.91
2022-10-09T14:22:14.702Z,98177.63
2022-10-09T14:24:43.151Z,98170.03
2022-10-09T14:27:10.419Z,98163.28
2022-10-09T14:29:37.776Z,98160.31
2022-10-09T14:32:05.433Z,98160.00
2022-10-09T14:34:32.591Z,98154.88
2022-10-09T14:36:59.702Z,98154.88
2022-10-09T14:39:26.830Z,98159.19
2022-10-09T14:41:55.312Z,98153.25
2022-10-09T14:44:22.442Z,98151.88
2022-10-09T14:46:49.574Z,98149.69
2022-10-09T14:49:16.823Z,98151.88
2022-10-09T14:51:43.956Z,98144.88
2022-10-09T14:54:12.114Z,98139.47
2022-10-09T14:56:39.678Z,98135.72
2022-10-09T14:59:08.135Z,98135.44
2022-10-09T15:01:35.774Z,98135.44
2022-10-09T15:04:03.901Z,98135.72
2022-10-09T15:06:31.253Z,98132.47
2022-10-09T15:09:03.091Z,98121.41
2022-10-09T15:11:33.861Z,98127.63
2022-10-09T15:14:01.437Z,98122.75
2022-10-09T15:16:29.984Z,98120.31
2022-10-09T15:18:57.117Z,98121.69
2022-10-09T15:21:26.868Z,98107.91
2022-10-09T15:23:55.567Z,98113.84
2022-10-09T15:26:23.284Z,98110.34
2022-10-09T15:28:50.450Z,98109.81
2022-10-09T15:31:22.252Z,98101.19
2022-10-09T15:33:52.730Z,98104.41
2022-10-09T15:36:20.517Z,98096.31
2022-10-09T15:38:48.324Z,98084.47
2022-10-09T15:41:22.965Z,98089.03
2022-10-09T15:43:50.309Z,98093.34
2022-10-09T15:46:17.688Z,98097.66
2022-10-09T15:48:45.170Z,98091.19
2022-10-09T15:51:13.681Z,98089.03
2022-10-09T15:53:41.970Z,98082.81
2022-10-09T15:56:11.835Z,98077.16
2022-10-09T15:58:38.961Z,98078.53
2022-10-09T16:01:08.245Z,98079.06
2022-10-09T16:03:37.206Z,98065.31
2022-10-09T16:06:07.414Z,98079.88
2022-10-09T16:08:36.504Z,98066.66
2022-10-09T16:11:05.641Z,98057.75
2022-10-09T16:13:35.608Z,98055.88
2022-10-09T16:16:04.601Z,98055.03
2022-10-09T16:18:31.722Z,98053.94
2022-10-09T16:21:04.240Z,98054.81
2022-10-09T16:23:31.442Z,98057.22
2022-10-09T16:26:01.408Z,98059.09
2022-10-09T16:28:28.775Z,98055.84
2022-10-09T16:30:56.236Z,98051.00
2022-10-09T16:33:23.325Z,98045.06
2022-10-09T16:35:50.637Z,98042.06
2022-10-09T16:38:18.090Z,98043.97
2022-10-09T16:41:02.561Z,98041.53
2022-10-09T16:43:33.853Z,98049.38
2022-10-09T16:46:12.639Z,98044.50
2022-10-09T16:48:39.773Z,98040.22
2022-10-09T16:51:11.129Z,98042.06
2022-10-09T16:53:38.510Z,98041.00
2022-10-09T16:56:10.005Z,98046.41
2022-10-09T16:58:38.842Z,98043.72
2022-10-09T17:01:09.799Z,98039.13
2022-10-09T17:03:38.092Z,98039.13
2022-10-09T17:06:07.614Z,98035.31
2022-10-09T17:08:34.724Z,98031.56
2022-10-09T17:11:02.005Z,98034.78
2022-10-09T17:13:29.114Z,98026.75
2022-10-09T17:15:57.610Z,98026.22
2022-10-09T17:18:24.768Z,98032.94
2022-10-09T17:20:51.894Z,98034.56
2022-10-09T17:23:19.016Z,98029.13
2022-10-09T17:25:46.155Z,98036.16
2022-10-09T17:28:13.317Z,98032.13
2022-10-09T17:30:40.839Z,98039.69
2022-10-09T17:33:09.344Z,98041.53
2022-10-09T17:35:39.507Z,98041.53
2022-10-09T17:38:07.492Z,98035.06
2022-10-09T17:40:37.652Z,98031.03
2022-10-09T17:43:04.982Z,98032.38
2022-10-09T17:45:39.132Z,98037.78
2022-10-09T17:48:07.216Z,98042.06
2022-10-09T17:50:36.409Z,98040.72
2022-10-09T17:53:03.974Z,98041.81
2022-10-09T17:55:31.728Z,98040.47
2022-10-09T17:57:58.919Z,98038.28
2022-10-09T18:00:26.084Z,98037.19
2022-10-09T18:02:53.195Z,98026.09
2022-10-09T18:05:20.294Z,98026.06
2022-10-09T18:07:48.991Z,98027.97
2022-10-09T18:10:16.512Z,98022.81
2022-10-09T18:12:43.694Z,98017.41
2022-10-09T18:15:11.052Z,98014.66
2022-10-09T18:17:38.288Z,98019.25
2022-10-09T18:20:06.381Z,98016.53
2022-10-09T18:22:36.084Z,98022.22
2022-10-09T18:25:05.700Z,98002.03
2022-10-09T18:27:32.829Z,98015.75
2022-10-09T18:29:59.975Z,98013.59
2022-10-09T18:32:27.180Z,98019.00
2022-10-09T18:34:54.346Z,98007.41
2022-10-09T18:37:21.555Z,98001.75
2022-10-09T18:39:48.668Z,98005.22
2022-10-09T18:42:17.149Z,97996.88
2022-10-09T18:44:44.263Z,97997.72
2022-10-09T18:47:15.494Z,97991.75
2022-10-09T18:49:46.862Z,97992.00
2022-10-09T18:52:15.083Z,97990.66
2022-10-09T18:54:45.735Z,97982.75
2022-10-09T18:57:12.944Z,97990.31
2022-10-09T18:59:42.050Z,97980.81
2022-10-09T19:02:09.170Z,97980.28
2022-10-09T19:04:36.282Z,97972.44
2022-10-09T19:07:03.798Z,97974.56
2022-10-09T19:09:30.925Z,97973.50
2022-10-09T19:11:58.041Z,97968.63
2022-10-09T19:14:25.145Z,97968.09
2022-10-09T19:16:53.805Z,97973.78
2022-10-09T19:19:20.911Z,97970.56
2022-10-09T19:21:48.015Z,97968.69
2022-10-09T19:24:15.131Z,97964.63
2022-10-09T19:26:42.265Z,97973.28
2022-10-09T19:29:09.733Z,97973.56
2022-10-09T19:31:36.911Z,97965.75
2022-10-09T19:34:05.902Z,97970.34
2022-10-09T19:36:33.032Z,97966.31
2022-10-09T19:39:00.460Z,97970.38
2022-10-09T19:41:27.793Z,97967.41
2022-10-09T19:43:55.025Z,97972.81
2022-10-09T19:46:22.166Z,97972.75
2022-10-09T19:48:49.359Z,97964.91
2022-10-09T19:51:20.238Z,97963.25
2022-10-09T19:53:48.090Z,97962.94
2022-10-09T19:56:18.119Z,97962.97
2022-10-09T19:58:47.297Z,97965.16
2022-10-09T20:01:16.284Z,97959.56
2022-10-09T20:03:43.837Z,97966.59
2022-10-09T20:06:11.682Z,97961.47
2022-10-09T20:08:42.308Z,97959.81
2022-10-09T20:11:09.552Z,97957.66
2022-10-09T20:13:38.150Z,97960.38
2022-10-09T20:16:08.699Z,97949.03
2022-10-09T20:18:35.921Z,97952.03
2022-10-09T20:21:03.050Z,97950.44
2022-10-09T20:23:30.359Z,97951.22
2022-10-09T20:26:03.970Z,97951.22
2022-10-09T20:28:32.205Z,97960.19
2022-10-09T20:31:01.183Z,97957.75
2022-10-09T20:33:28.281Z,97956.13
2022-10-09T20:35:55.408Z,97956.69
2022-10-09T20:38:25.723Z,97959.16
2022-10-09T20:40:53.376Z,97958.09
2022-10-09T20:43:21.849Z,97951.66
2022-10-09T20:45:48.942Z,97957.31
2022-10-09T20:48:16.105Z,97947.31
2022-10-09T20:50:43.236Z,97949.75
2022-10-09T20:53:10.802Z,97940.00
2022-10-09T20:55:37.951Z,97938.91
2022-10-09T20:58:05.089Z,97941.91
2022-10-09T21:00:33.559Z,97938.09
2022-10-09T21:03:00.735Z,97937.28
2022-10-09T21:05:27.846Z,97940.00
2022-10-09T21:07:54.948Z,97940.28
2022-10-09T21:10:22.039Z,97945.66
2022-10-09T21:12:49.560Z,97935.44
2022-10-09T21:15:16.985Z,97934.09
2022-10-09T21:17:45.463Z,97938.41
2022-10-09T21:20:12.623Z,97938.16
2022-10-09T21:22:39.705Z,97935.75
2022-10-09T21:25:07.470Z,97929.78
2022-10-09T21:27:34.710Z,97930.66
2022-10-09T21:30:01.915Z,97936.28
2022-10-09T21:32:29.086Z,97925.22
2022-10-09T21:34:57.561Z,97930.63
2022-10-09T21:37:24.669Z,97923.59
2022-10-09T21:39:51.764Z,97924.66
2022-10-09T21:42:18.995Z,97923.06
2022-10-09T21:44:46.103Z,97921.44
2022-10-09T21:47:16.303Z,97921.69
2022-10-09T21:49:43.440Z,97921.94
2022-10-09T21:52:12.041Z,97914.91
2022-10-09T21:54:39.161Z,97920.38
2022-10-09T21:57:06.393Z,97926.00
2022-10-09T21:59:33.488Z,97920.06
2022-10-09T22:02:00.578Z,97927.38
2022-10-09T22:04:27.709Z,97929.53
2022-10-09T22:06:55.001Z,97921.44
2022-10-09T22:09:23.469Z,97920.38
2022-10-09T22:11:50.587Z,97917.13
2022-10-09T22:14:17.697Z,97917.13
2022-10-09T22:16:44.797Z,97922.81
2022-10-09T22:19:12.143Z,97916.88
2022-10-09T22:21:39.248Z,97908.25
2022-10-09T22:24:06.465Z,97909.91
2022-10-09T22:26:35.392Z,97910.19
2022-10-09T22:29:02.500Z,97907.22
2022-10-09T22:31:29.624Z,97906.88
2022-10-09T22:33:59.648Z,97898.25
2022-10-09T22:36:28.671Z,97904.72
2022-10-09T22:38:57.469Z,97904.44
2022-10-09T22:41:26.548Z,97903.91
2022-10-09T22:43:57.876Z,97907.13
2022-10-09T22:46:26.625Z,97904.47
2022-10-09T22:48:54.377Z,97904.75
2022-10-09T22:51:22.771Z,97902.88
2022-10-09T22:53:50.036Z,97901.75
2022-10-09T22:56:19.552Z,97910.41
2022-10-09T22:58:47.459Z,97898.53
2022-10-09T23:01:19.903Z,97902.06
2022-10-09T23:03:47.064Z,97894.50
2022-10-09T23:06:16.432Z,97889.38
2022-10-09T23:08:45.800Z,97888.84
2022-10-09T23:11:13.568Z,97892.06
2022-10-09T23:13:40.782Z,97889.69
2022-10-09T23:16:10.501Z,97892.09
2022-10-09T23:18:40.239Z,97883.47
2022-10-09T23:21:10.660Z,97885.91
2022-10-09T23:23:38.269Z,97882.13
2022-10-09T23:26:06.646Z,97873.78
2022-10-09T23:28:33.891Z,97884.28
2022-10-09T23:31:01.871Z,97878.13
2022-10-09T23:33:28.976Z,97885.88
2022-10-09T23:35:57.678Z,97886.69
2022-10-09T23:38:24.901Z,97891.81
2022-10-09T23:40:56.007Z,97885.38
2022-10-09T23:43:23.246Z,97889.97
2022-10-09T23:45:50.378Z,97887.25
2022-10-09T23:48:17.475Z,97890.75
2022-10-09T23:50:44.703Z,97887.53
2022-10-09T23:53:13.158Z,97884.56
2022-10-09T23:55:40.259Z,97890.75
2022-10-09T23:58:07.363Z,97889.13
